Terminal Aerodrome Forecast
Issued by NWS Wilmington, OH

Current Version | Previous Version | Text Only | Print | Product List | Glossary Off
Versions: 1 2 3 4 5 6 7 8 9 10 11 12 13 14 15 16 17 18 19

000
FTUS41 KILN 190537
TAFCMH
TAF
KCMH 190537Z 1906/2006 VRB03KT P6SM SKC
      TEMPO 1909/1913 5SM BR SCT050
     FM191300 29006KT P6SM SCT050
     FM200000 VRB03KT P6SM SCT150=

USA.gov is the U.S. government's official web portal to all federal, state and local government web resources and services.